Time;durP1;ratioP1;P1;durP2;ratioP2;P2;SDS_P1;SDS_P2;PMS_P1;PMS_P2;Temp;Humidity;BMP_temperature;BMP_pressure;BME280_temperature;BME280_humidity;BME280_pressure;Samples;Min_cycle;Max_cycle;Signal;HPM_P1;HPM_P2
2022/12/31 00:00:47;;;;;;;1.23;0.95;;;;;;;12.45;83.69;100262.22;4197957;28;20094;-71
2022/12/31 00:02:50;;;;;;;2.10;0.90;;;;;;;12.50;83.63;100269.19;4196553;28;20048;-70
2022/12/31 00:04:54;;;;;;;2.45;1.00;;;;;;;12.50;83.54;100273.50;4197645;28;20048;-71
2022/12/31 00:06:57;;;;;;;1.77;1.13;;;;;;;12.48;83.83;100280.47;4197802;28;20044;-71
2022/12/31 00:09:04;;;;;;;1.75;0.88;;;;;;;12.53;84.19;100273.56;4198112;28;20064;-71
2022/12/31 00:11:07;;;;;;;2.35;1.10;;;;;;;12.54;84.41;100257.91;4196438;28;20062;-71
2022/12/31 00:13:11;;;;;;;0.95;0.85;;;;;;;12.58;84.21;100264.00;4197759;28;20052;-71
2022/12/31 00:15:14;;;;;;;1.67;0.90;;;;;;;12.58;84.17;100248.34;4197623;28;20040;-71
2022/12/31 00:17:17;;;;;;;1.23;0.93;;;;;;;12.63;84.10;100253.56;4197762;28;20033;-71
2022/12/31 00:19:20;;;;;;;1.45;0.77;;;;;;;12.60;84.25;100257.06;4197800;28;20090;-71
2022/12/31 00:21:23;;;;;;;1.17;1.00;;;;;;;12.53;84.53;100260.53;4196467;28;20044;-71
2022/12/31 00:23:26;;;;;;;2.45;0.93;;;;;;;12.59;84.57;100265.75;4196002;28;20048;-70
2022/12/31 00:25:30;;;;;;;1.00;0.80;;;;;;;12.50;84.51;100269.19;4197693;28;20044;-71
2022/12/31 00:27:33;;;;;;;1.88;1.00;;;;;;;12.46;85.19;100258.75;4197823;28;20041;-71
2022/12/31 00:29:36;;;;;;;1.98;1.10;;;;;;;12.47;85.48;100269.19;4197546;28;20056;-71
2022/12/31 00:31:40;;;;;;;2.10;0.98;;;;;;;12.52;85.40;100277.03;4196462;28;20119;-70
2022/12/31 00:33:43;;;;;;;1.90;1.10;;;;;;;12.52;85.39;100269.19;4195943;28;20131;-71
2022/12/31 00:35:46;;;;;;;1.33;0.90;;;;;;;12.48;85.87;100275.25;4197568;28;20066;-71
2022/12/31 00:37:51;;;;;;;1.00;0.90;;;;;;;12.52;85.65;100270.06;4197491;28;20045;-71
2022/12/31 00:39:54;;;;;;;2.78;1.15;;;;;;;12.49;85.89;100267.44;4197605;28;20085;-71
2022/12/31 00:41:58;;;;;;;1.52;1.00;;;;;;;12.58;85.36;100264.84;4197435;28;20040;-71
2022/12/31 00:44:01;;;;;;;1.58;0.90;;;;;;;12.53;85.30;100261.38;4196983;28;20102;-71
2022/12/31 00:46:05;;;;;;;0.80;0.80;;;;;;;12.50;85.62;100263.97;4196196;28;20040;-71
2022/12/31 00:48:08;;;;;;;1.50;0.90;;;;;;;12.50;85.62;100269.19;4196161;28;20048;-71
2022/12/31 00:50:11;;;;;;;1.15;1.00;;;;;;;12.62;85.19;100272.72;4196206;28;20040;-71
2022/12/31 00:52:15;;;;;;;0.88;0.88;;;;;;;12.51;86.02;100275.25;4197389;28;20123;-71
2022/12/31 00:54:18;;;;;;;1.52;1.00;;;;;;;12.56;85.67;100276.16;4196624;28;20040;-71
2022/12/31 00:56:23;;;;;;;3.28;0.90;;;;;;;12.57;85.64;100286.59;4197326;28;20048;-71
2022/12/31 00:58:28;;;;;;;1.88;0.93;;;;;;;12.55;85.43;100287.44;4197326;28;20456;-71
2022/12/31 01:00:30;;;;;;;2.75;1.45;;;;;;;12.58;85.70;100290.06;4196032;28;20161;-71
2022/12/31 01:02:33;;;;;;;1.75;0.70;;;;;;;12.57;85.37;100296.13;4196095;28;20051;-71
2022/12/31 01:04:36;;;;;;;2.00;1.10;;;;;;;12.55;85.65;100290.91;4196856;28;20071;-71
2022/12/31 01:06:40;;;;;;;2.10;1.00;;;;;;;12.58;85.77;100293.53;4197323;28;20040;-71
2022/12/31 01:08:43;;;;;;;4.55;1.13;;;;;;;12.64;85.13;100294.44;4197176;28;20406;-71
2022/12/31 01:13:09;;;;;;;2.58;0.90;;;;;;;12.51;85.83;100311.78;4195793;28;20540;-71
2022/12/31 01:15:14;;;;;;;2.03;1.10;;;;;;;12.57;85.69;100312.69;4196871;28;20850;-71
2022/12/31 01:17:16;;;;;;;1.10;0.80;;;;;;;12.55;85.89;100319.59;4197318;28;20044;-71
2022/12/31 01:19:23;;;;;;;0.98;0.88;;;;;;;12.57;85.79;100307.47;4195915;28;20052;-71
2022/12/31 01:21:27;;;;;;;0.90;0.85;;;;;;;12.60;85.69;100317.03;4197087;28;20036;-71
2022/12/31 01:23:30;;;;;;;2.05;1.02;;;;;;;12.67;85.21;100307.47;4196783;28;20124;-71
2022/12/31 01:25:35;;;;;;;2.17;1.08;;;;;;;12.78;84.85;100317.97;4197073;28;20044;-71
2022/12/31 01:27:37;;;;;;;;;;;;;;;12.70;85.35;100321.41;4196369;28;20144;-71
2022/12/31 01:29:40;;;;;;;1.17;0.90;;;;;;;12.70;84.96;100321.41;4197065;28;19920;-71
2022/12/31 01:31:44;;;;;;;1.20;1.08;;;;;;;12.79;84.73;100325.78;4196998;28;20128;-71
2022/12/31 01:33:47;;;;;;;2.20;0.95;;;;;;;12.75;84.26;100332.72;4196553;28;20124;-71
2022/12/31 01:35:50;;;;;;;1.50;1.02;;;;;;;12.81;84.19;100331.03;4196962;28;20045;-71
2022/12/31 01:37:53;;;;;;;2.53;1.15;;;;;;;12.83;84.30;100337.97;4195791;28;20403;-71
2022/12/31 01:39:56;;;;;;;1.42;0.98;;;;;;;12.89;83.95;100350.16;4196954;28;20090;-71
2022/12/31 01:41:59;;;;;;;3.17;1.10;;;;;;;12.99;83.76;100345.84;4195683;28;20045;-71
2022/12/31 01:44:23;;;;;;;1.25;1.00;;;;;;;12.93;83.63;100346.69;4195164;28;20041;-71
2022/12/31 01:46:37;;;;;;;2.13;0.90;;;;;;;12.97;82.98;100360.63;4196851;28;20073;-71
2022/12/31 01:48:42;;;;;;;3.55;0.95;;;;;;;12.91;82.94;100359.72;4195773;28;20049;-71
2022/12/31 01:50:46;;;;;;;3.08;0.90;;;;;;;12.95;83.04;100364.97;4196859;28;20490;-71
2022/12/31 01:52:52;;;;;;;4.30;1.30;;;;;;;12.94;83.15;100358.88;4196945;28;20037;-71
2022/12/31 01:55:00;;;;;;;3.33;1.17;;;;;;;12.98;82.58;100355.41;4195503;28;20063;-71
2022/12/31 01:57:04;;;;;;;1.42;0.82;;;;;;;13.03;82.04;100358.03;4196748;28;20097;-71
2022/12/31 01:59:10;;;;;;;9.75;1.73;;;;;;;13.01;81.77;100355.41;4196972;28;20044;-71
2022/12/31 02:01:18;;;;;;;7.78;1.75;;;;;;;13.02;81.26;100351.91;4196783;28;20446;-71
2022/12/31 02:03:22;;;;;;;8.18;1.63;;;;;;;13.08;80.49;100351.97;4196531;28;20045;-70
2022/12/31 02:05:31;;;;;;;;;;;;;;;13.17;80.31;100342.38;4197327;28;20095;-71
2022/12/31 02:07:33;;;;;;;3.28;1.60;;;;;;;13.25;79.61;100351.09;4199806;28;19920;-71
2022/12/31 02:09:39;;;;;;;7.30;1.70;;;;;;;13.35;79.04;100350.28;4181977;28;20048;-71
2022/12/31 02:11:42;;;;;;;4.70;1.40;;;;;;;13.47;79.05;100359.00;4199625;28;20041;-70
2022/12/31 02:13:45;;;;;;;7.55;1.55;;;;;;;13.48;78.01;100356.38;4199469;28;20036;-71
2022/12/31 02:16:04;;;;;;;16.10;3.13;;;;;;;13.48;78.07;100345.94;4199928;28;20536;-71
2022/12/31 02:18:13;;;;;;;5.63;1.70;;;;;;;13.50;78.23;100344.19;4199690;28;20067;-71
2022/12/31 02:20:39;;;;;;;7.45;1.17;;;;;;;13.50;78.06;100330.28;4199657;28;20495;-71
2022/12/31 02:23:12;;;;;;;3.20;1.40;;;;;;;13.48;77.92;100338.13;4199868;28;20037;-71
2022/12/31 02:25:37;;;;;;;2.60;1.17;;;;;;;13.56;77.64;100335.50;4197507;28;20462;-70
2022/12/31 02:27:51;;;;;;;4.37;1.60;;;;;;;13.58;77.06;100332.03;4199809;28;20066;-71
2022/12/31 02:30:11;;;;;;;5.32;1.40;;;;;;;13.67;76.60;100330.25;4199594;28;20094;-71
2022/12/31 02:32:17;;;;;;;2.83;1.00;;;;;;;13.66;76.30;100339.84;4199690;28;20043;-71
2022/12/31 02:34:27;;;;;;;2.50;1.08;;;;;;;13.64;76.34;100340.72;4199142;28;20045;-71
2022/12/31 02:36:35;;;;;;;3.78;1.20;;;;;;;13.68;76.43;100352.91;4199408;28;20043;-71
2022/12/31 02:38:41;;;;;;;3.88;1.48;;;;;;;13.73;75.95;100359.00;4199424;28;20094;-72
2022/12/31 02:40:44;;;;;;;3.85;1.30;;;;;;;13.66;76.04;100355.50;4199387;28;20041;-71
2022/12/31 02:42:47;;;;;;;3.75;1.10;;;;;;;13.72;76.19;100359.88;4199370;28;20040;-71
2022/12/31 02:44:57;;;;;;;2.90;0.82;;;;;;;13.72;76.24;100359.88;4198954;28;20497;-72
2022/12/31 02:47:14;;;;;;;5.20;1.33;;;;;;;13.77;75.92;100352.91;4199476;28;20043;-72
2022/12/31 02:49:23;;;;;;;5.10;1.30;;;;;;;13.75;75.81;100355.50;4199237;28;20045;-71
2022/12/31 02:51:39;;;;;;;4.43;1.27;;;;;;;13.83;75.51;100358.13;4199234;28;20079;-71
2022/12/31 02:54:01;;;;;;;4.35;1.17;;;;;;;13.81;75.03;100359.84;4198750;28;20040;-72
2022/12/31 02:56:12;;;;;;;4.95;2.20;;;;;;;13.79;75.75;100357.25;4181393;28;20045;-71
2022/12/31 03:02:12;;;;;;;3.08;1.30;;;;;;;13.83;75.06;100370.31;4199128;28;20501;-71
2022/12/31 03:03:13;;;;;;;9.48;1.50;;;;;;;13.82;75.23;100366.84;4198802;28;20530;-70
2022/12/31 03:05:19;;;;;;;4.97;1.35;;;;;;;13.85;76.27;100372.06;4197454;28;20048;-71
2022/12/31 03:07:24;;;;;;;6.03;1.38;;;;;;;13.85;75.80;100377.28;4197652;28;20048;-72
2022/12/31 03:09:27;;;;;;;3.50;1.63;;;;;;;13.93;75.97;100379.88;4198920;28;20053;-71
2022/12/31 03:13:50;;;;;;;3.97;2.42;;;;;;;13.97;75.17;100371.16;4198484;28;20053;-72
2022/12/31 03:15:53;;;;;;;3.30;1.35;;;;;;;14.00;75.78;100363.31;4199001;28;20045;-72
2022/12/31 03:17:59;;;;;;;8.60;1.88;;;;;;;13.99;75.14;100361.59;4198549;28;20087;-72
2022/12/31 03:22:28;;;;;;;4.35;1.42;;;;;;;14.10;74.99;100374.63;4197533;28;20468;-71
2022/12/31 03:26:51;;;;;;;2.38;1.15;;;;;;;14.10;75.67;100361.56;4198645;28;20040;-71
2022/12/31 03:28:54;;;;;;;2.67;0.80;;;;;;;14.09;74.81;100362.44;4198622;28;20506;-72
2022/12/31 03:31:00;;;;;;;3.47;1.20;;;;;;;14.18;75.41;100353.69;4198498;28;20040;-72
2022/12/31 03:33:05;;;;;;;1.30;0.85;;;;;;;14.11;74.68;100360.72;4198536;28;20044;-72
2022/12/31 03:35:11;;;;;;;1.75;0.95;;;;;;;14.13;75.09;100358.94;4198368;28;20086;-71
2022/12/31 03:37:15;;;;;;;1.38;0.98;;;;;;;14.08;74.74;100361.56;4198458;28;20060;-71
2022/12/31 03:39:18;;;;;;;3.13;1.10;;;;;;;14.09;75.23;100360.72;4198453;28;20452;-72
2022/12/31 03:41:21;;;;;;;2.65;1.00;;;;;;;14.09;74.95;100363.31;4198405;28;20067;-72
2022/12/31 03:43:24;;;;;;;3.25;1.25;;;;;;;14.14;75.16;100379.84;4196472;28;20119;-72
2022/12/31 03:45:26;;;;;;;5.68;1.38;;;;;;;14.14;74.83;100371.16;4198436;28;20059;-72
2022/12/31 03:47:29;;;;;;;2.72;0.80;;;;;;;14.11;75.05;100372.03;4197152;28;20056;-72
2022/12/31 03:49:32;;;;;;;1.80;0.95;;;;;;;14.08;75.47;100371.16;4198242;28;20379;-72
2022/12/31 03:51:36;;;;;;;2.28;1.10;;;;;;;14.08;74.34;100358.09;4198215;28;20040;-72
2022/12/31 03:53:39;;;;;;;2.13;0.80;;;;;;;14.10;75.03;100377.25;4196159;28;20045;-71
2022/12/31 03:55:42;;;;;;;1.48;0.88;;;;;;;14.04;74.48;100383.34;4196881;28;20037;-72
2022/12/31 03:57:45;;;;;;;2.45;1.15;;;;;;;14.04;74.80;100377.28;4198220;28;20044;-72
2022/12/31 03:59:48;;;;;;;2.45;0.98;;;;;;;14.14;74.45;100385.09;4198162;28;20052;-72
2022/12/31 04:01:51;;;;;;;2.90;1.05;;;;;;;14.17;75.00;100385.97;4197939;28;20054;-72
2022/12/31 04:03:53;;;;;;;2.80;1.30;;;;;;;14.10;75.32;100379.88;4197221;28;20041;-71
2022/12/31 04:05:56;;;;;;;3.22;1.10;;;;;;;14.17;74.17;100384.22;4180237;28;20498;-72
2022/12/31 04:08:01;;;;;;;2.00;1.10;;;;;;;14.11;74.81;100364.19;4197833;28;20041;-72
2022/12/31 04:10:06;;;;;;;3.15;0.80;;;;;;;14.08;75.23;100364.19;4196925;28;20051;-72
2022/12/31 04:12:09;;;;;;;2.70;0.95;;;;;;;14.04;74.76;100377.28;4197893;28;20062;-72
2022/12/31 04:14:12;;;;;;;0.80;0.80;;;;;;;14.02;74.31;100389.44;4179363;28;20403;-72
2022/12/31 04:16:15;;;;;;;4.07;1.10;;;;;;;14.04;74.06;100380.75;4196585;28;20039;-71
2022/12/31 04:18:18;;;;;;;1.48;0.90;;;;;;;14.12;73.77;100376.38;4196465;28;20046;-71
2022/12/31 04:20:20;;;;;;;3.35;1.20;;;;;;;14.17;74.20;100389.44;4197800;28;20091;-71
2022/12/31 04:22:24;;;;;;;2.97;1.00;;;;;;;14.20;74.06;100389.44;4197680;28;20086;-71
2022/12/31 04:24:28;;;;;;;4.57;0.90;;;;;;;14.24;73.99;100390.31;4197103;28;20478;-71
2022/12/31 04:26:31;;;;;;;1.02;0.73;;;;;;;14.37;73.04;100391.13;4196396;28;20036;-71
2022/12/31 04:28:34;;;;;;;3.90;1.00;;;;;;;14.45;72.90;100389.38;4195691;28;20036;-71
2022/12/31 04:30:36;;;;;;;6.63;1.15;;;;;;;14.51;71.97;100386.75;4197555;28;20044;-71
2022/12/31 04:32:40;;;;;;;4.47;1.27;;;;;;;14.52;72.09;100380.63;4197508;28;20040;-71
2022/12/31 04:34:43;;;;;;;4.50;1.02;;;;;;;14.57;72.29;100397.22;4195720;28;20430;-72
2022/12/31 04:36:45;;;;;;;3.25;1.10;;;;;;;14.68;71.78;100386.72;4197555;28;20449;-72
2022/12/31 04:38:48;;;;;;;4.90;1.10;;;;;;;14.72;71.73;100387.56;4197538;28;20048;-71
2022/12/31 04:43:09;;;;;;;4.75;1.15;;;;;;;14.81;71.43;100382.31;4188412;28;20417;-71
2022/12/31 04:45:12;;;;;;;5.03;1.33;;;;;;;14.81;71.31;100387.56;4195493;28;20130;-71
2022/12/31 04:47:15;;;;;;;4.78;1.63;;;;;;;14.85;71.79;100389.28;4197363;28;20033;-71
2022/12/31 04:49:25;;;;;;;6.25;1.60;;;;;;;14.79;72.14;100390.19;4196288;28;20044;-72
2022/12/31 04:51:29;;;;;;;7.32;1.92;;;;;;;14.84;72.11;100388.38;4179487;28;20510;-72
2022/12/31 04:53:32;;;;;;;6.75;1.70;;;;;;;14.87;71.48;100382.28;4196652;28;20098;-72
2022/12/31 04:55:35;;;;;;;6.78;1.50;;;;;;;14.89;71.81;100390.13;4197482;28;20037;-72
2022/12/31 04:57:39;;;;;;;4.95;1.08;;;;;;;14.99;71.98;100376.09;4196307;28;20047;-72
2022/12/31 04:59:42;;;;;;;3.25;0.98;;;;;;;15.07;70.62;100383.91;4197225;28;20098;-72
2022/12/31 05:01:44;;;;;;;9.82;1.73;;;;;;;15.14;70.88;100362.06;4197166;28;20044;-72
2022/12/31 05:03:48;;;;;;;1.85;1.00;;;;;;;15.12;70.54;100382.16;4196792;28;20048;-71
2022/12/31 05:05:51;;;;;;;2.78;0.90;;;;;;;15.07;70.56;100397.91;4179335;28;20043;-72
2022/12/31 05:07:53;;;;;;;3.53;0.80;;;;;;;15.12;70.30;100405.72;4197077;28;20052;-72
2022/12/31 05:09:56;;;;;;;2.78;1.02;;;;;;;15.24;70.45;100399.53;4197192;28;20045;-72
2022/12/31 05:11:59;;;;;;;3.08;0.88;;;;;;;15.22;69.85;100404.78;4195851;28;20114;-72
2022/12/31 05:14:03;;;;;;;3.17;0.80;;;;;;;15.24;69.91;100413.50;4178512;28;20503;-72
2022/12/31 05:16:07;;;;;;;2.38;0.80;;;;;;;15.24;69.56;100412.63;4197068;28;20036;-71
2022/12/31 05:18:10;;;;;;;2.70;1.73;;;;;;;15.27;69.69;100418.72;4195954;28;20044;-71
2022/12/31 05:20:13;;;;;;;4.55;1.13;;;;;;;15.35;69.06;100423.94;4195819;28;20051;-71
2022/12/31 05:22:31;;;;;;;3.15;1.10;;;;;;;15.27;69.23;100416.09;4195775;28;20045;-71
2022/12/31 05:24:33;;;;;;;1.38;0.77;;;;;;;15.32;69.47;100419.56;4196443;28;20119;-72
2022/12/31 05:26:36;;;;;;;0.90;0.63;;;;;;;15.38;68.83;100409.94;4197009;28;20045;-72
2022/12/31 05:28:39;;;;;;;3.20;0.70;;;;;;;15.35;68.88;100414.31;4197213;28;20049;-72
2022/12/31 05:30:44;;;;;;;1.38;0.90;;;;;;;15.29;69.05;100414.34;4196974;28;20045;-72
2022/12/31 05:32:47;;;;;;;2.28;0.70;;;;;;;15.28;69.13;100415.22;4195779;28;20451;-72
2022/12/31 05:34:50;;;;;;;1.77;0.75;;;;;;;15.26;69.01;100422.22;4195261;28;20119;-72
2022/12/31 05:36:53;;;;;;;3.05;0.90;;;;;;;15.23;69.87;100426.59;4197008;28;20098;-72
2022/12/31 05:38:56;;;;;;;1.73;0.55;;;;;;;15.26;69.27;100421.34;4197051;28;20482;-72
2022/12/31 05:41:01;;;;;;;1.67;0.70;;;;;;;15.20;69.18;100438.00;4198218;28;20414;-72
2022/12/31 05:43:04;;;;;;;3.60;0.90;;;;;;;15.14;69.76;100438.00;4200303;28;20041;-72
2022/12/31 05:45:07;;;;;;;2.15;0.82;;;;;;;15.22;69.60;100433.59;4199635;28;20032;-72
2022/12/31 05:47:12;;;;;;;2.47;0.90;;;;;;;15.30;69.08;100437.06;4200173;28;20040;-71
2022/12/31 05:49:14;;;;;;;1.67;0.80;;;;;;;15.42;68.34;100437.84;4200442;28;20075;-72
2022/12/31 05:51:17;;;;;;;2.47;0.85;;;;;;;15.44;68.60;100446.56;4200191;28;20494;-72
2022/12/31 05:53:20;;;;;;;3.83;0.77;;;;;;;15.39;68.71;100448.34;4199434;28;20040;-73
2022/12/31 05:55:23;;;;;;;1.30;0.55;;;;;;;15.42;68.92;100454.44;4200086;28;20047;-72
2022/12/31 05:57:26;;;;;;;1.23;0.60;;;;;;;15.38;68.91;100459.72;4198742;28;20426;-72
2022/12/31 05:59:29;;;;;;;2.83;0.85;;;;;;;15.45;68.38;100466.63;4200085;28;20049;-71
2022/12/31 06:01:32;;;;;;;3.10;0.73;;;;;;;15.47;68.60;100463.13;4200093;28;20406;-72
2022/12/31 06:03:36;;;;;;;1.58;0.70;;;;;;;15.48;68.10;100462.25;4199395;28;20115;-71
2022/12/31 06:05:41;;;;;;;3.33;0.77;;;;;;;15.42;68.27;100467.53;4199586;28;20068;-72
2022/12/31 06:07:44;;;;;;;1.75;0.70;;;;;;;15.43;68.74;100463.16;4199769;28;20102;-72
2022/12/31 06:09:47;;;;;;;1.95;0.70;;;;;;;15.44;68.51;100465.78;4199889;28;20044;-72
2022/12/31 06:11:50;;;;;;;1.83;0.85;;;;;;;15.41;68.41;100451.84;4199668;28;20041;-72
2022/12/31 06:13:53;;;;;;;5.80;0.98;;;;;;;15.54;68.53;100453.50;4198978;28;20384;-71
2022/12/31 06:15:56;;;;;;;0.85;0.73;;;;;;;15.42;68.92;100469.28;4199818;28;20509;-72
2022/12/31 06:17:59;;;;;;;1.35;0.70;;;;;;;15.43;68.49;100460.53;4198462;28;20040;-72
2022/12/31 06:20:04;;;;;;;2.83;1.15;;;;;;;15.49;68.80;100450.91;4198365;28;20078;-72
2022/12/31 06:22:14;;;;;;;1.45;0.80;;;;;;;15.40;68.44;100465.81;4199653;28;20068;-73
2022/12/31 06:24:17;;;;;;;1.85;0.70;;;;;;;15.33;69.37;100455.38;4197592;28;20056;-72
2022/12/31 06:26:20;;;;;;;1.27;0.75;;;;;;;15.44;68.37;100463.16;4199501;28;20086;-72
2022/12/31 06:28:23;;;;;;;1.20;0.77;;;;;;;15.41;69.04;100462.31;4199545;28;20437;-72
2022/12/31 06:30:26;;;;;;;1.42;0.70;;;;;;;15.34;69.37;100471.94;4198251;28;20040;-72
2022/12/31 06:32:29;;;;;;;1.88;0.93;;;;;;;15.33;69.23;100471.09;4198340;28;20587;-72
2022/12/31 06:34:31;;;;;;;1.65;0.80;;;;;;;15.31;68.93;100472.81;4180898;28;20473;-72
2022/12/31 06:36:36;;;;;;;1.95;0.60;;;;;;;15.36;68.77;100476.31;4199467;28;20407;-72
2022/12/31 06:38:40;;;;;;;3.30;0.90;;;;;;;15.25;69.02;100477.25;4199480;28;20040;-72
2022/12/31 06:40:43;;;;;;;0.75;0.55;;;;;;;15.29;69.53;100473.72;4199334;28;20494;-72
2022/12/31 06:42:46;;;;;;;7.07;0.95;;;;;;;15.14;69.94;100482.50;4199350;28;20123;-72
2022/12/31 06:44:49;;;;;;;4.20;1.00;;;;;;;15.21;69.69;100473.75;4198735;28;20047;-72
2022/12/31 06:46:51;;;;;;;2.22;0.95;;;;;;;15.17;69.20;100477.25;4199245;28;20486;-72
2022/12/31 06:48:54;;;;;;;3.33;1.05;;;;;;;15.23;69.55;100481.59;4198200;28;20467;-72
2022/12/31 06:51:04;;;;;;;1.95;0.90;;;;;;;15.26;69.32;100485.09;4199571;28;20674;-72
2022/12/31 06:53:08;;;;;;;1.50;0.80;;;;;;;15.28;68.99;100478.09;4198698;28;20556;-72
2022/12/31 06:55:12;;;;;;;1.45;0.73;;;;;;;15.18;69.71;100476.38;4199075;28;20056;-72
2022/12/31 06:57:16;;;;;;;3.88;0.90;;;;;;;15.16;69.87;100479.00;4199128;28;20491;-72
2022/12/31 06:59:27;;;;;;;2.33;1.10;;;;;;;15.18;68.74;100481.63;4199083;28;20094;-72
2022/12/31 07:01:42;;;;;;;2.17;0.80;;;;;;;15.06;69.03;100481.69;4181232;28;20052;-72
2022/12/31 07:03:56;;;;;;;1.45;0.73;;;;;;;15.11;69.17;100490.38;4198278;28;20070;-71
2022/12/31 07:06:09;;;;;;;1.85;0.90;;;;;;;15.07;69.68;100484.28;4197756;28;20071;-72
2022/12/31 07:08:26;;;;;;;2.05;0.88;;;;;;;15.09;69.97;100479.06;4198906;28;20036;-72
2022/12/31 07:10:39;;;;;;;2.75;1.00;;;;;;;15.04;69.53;100489.56;4199102;28;20498;-72
2022/12/31 07:13:00;;;;;;;2.20;0.93;;;;;;;14.92;70.11;100498.31;4197502;28;20044;-72
2022/12/31 07:15:09;;;;;;;2.58;1.00;;;;;;;14.90;70.15;100502.66;4198327;28;20049;-72
2022/12/31 07:17:24;;;;;;;1.45;0.90;;;;;;;14.93;70.46;100497.41;4198993;28;20037;-72
2022/12/31 07:19:41;;;;;;;2.15;0.82;;;;;;;14.84;71.01;100502.69;4198951;28;20044;-72
2022/12/31 07:21:44;;;;;;;0.75;0.65;;;;;;;14.81;70.63;100513.19;4198834;28;20341;-71
2022/12/31 07:23:49;;;;;;;2.95;1.25;;;;;;;14.80;71.05;100508.81;4197878;28;20498;-72
2022/12/31 07:25:59;;;;;;;1.85;0.98;;;;;;;14.71;71.12;100524.53;4197494;28;20098;-72
2022/12/31 07:28:18;;;;;;;2.15;1.02;;;;;;;14.75;71.80;100507.97;4197365;28;20117;-72
2022/12/31 07:30:24;;;;;;;1.85;0.95;;;;;;;14.75;71.47;100519.28;4197551;28;20070;-72
2022/12/31 07:32:39;;;;;;;3.08;0.90;;;;;;;14.73;71.61;100520.16;4198588;28;20036;-72
2022/12/31 07:34:48;;;;;;;;;;;;;;;14.59;72.06;100523.63;4198200;28;20040;-72
2022/12/31 07:37:02;;;;;;;1.08;0.77;;;;;;;14.60;71.84;100514.03;4180718;28;19920;-72
2022/12/31 07:39:11;;;;;;;1.37;0.80;;;;;;;14.59;71.48;100523.63;4213976;28;20036;-73
2022/12/31 07:41:21;;;;;;;1.88;0.80;;;;;;;14.52;71.75;100524.53;4198826;28;20328;-73
2022/12/31 07:43:32;;;;;;;1.17;0.85;;;;;;;14.57;71.72;100537.59;4197754;28;20405;-73
2022/12/31 07:45:41;;;;;;;2.38;0.90;;;;;;;14.53;71.61;100543.69;4198560;28;20049;-70
2022/12/31 07:47:44;;;;;;;3.03;0.85;;;;;;;14.55;71.93;100537.59;4198282;28;20071;-73
2022/12/31 07:49:48;;;;;;;1.48;0.82;;;;;;;14.48;72.08;100538.47;4198415;28;20453;-73
2022/12/31 07:51:52;;;;;;;0.93;0.70;;;;;;;14.46;72.40;100542.84;4198279;28;20044;-73
2022/12/31 07:53:54;;;;;;;7.13;1.20;;;;;;;14.46;72.41;100538.47;4197413;28;20071;-73
2022/12/31 07:56:00;;;;;;;3.63;0.98;;;;;;;14.40;71.86;100524.53;4198468;28;20478;-73
2022/12/31 07:58:16;;;;;;;4.43;0.80;;;;;;;14.46;72.46;100537.63;4198437;28;20469;-73
2022/12/31 08:00:20;;;;;;;1.08;0.60;;;;;;;14.46;72.33;100541.09;4198179;28;20040;-73
2022/12/31 08:02:38;;;;;;;0.95;0.85;;;;;;;14.46;72.43;100548.06;4198087;28;20048;-73
2022/12/31 08:04:49;;;;;;;1.40;0.90;;;;;;;14.43;72.73;100538.47;4196405;28;20143;-73
2022/12/31 08:07:02;;;;;;;0.70;0.70;;;;;;;14.34;72.58;100556.78;4197964;28;20094;-73
2022/12/31 08:09:12;;;;;;;0.90;0.80;;;;;;;14.36;72.45;100562.03;4198022;28;20036;-73
2022/12/31 08:11:25;;;;;;;3.33;0.80;;;;;;;14.34;73.17;100558.53;4196693;28;20464;-73
2022/12/31 08:13:28;;;;;;;1.63;0.90;;;;;;;14.37;72.50;100555.91;4195960;28;20563;-72
2022/12/31 08:15:32;;;;;;;2.58;1.23;;;;;;;14.45;72.93;100552.41;4196670;28;20041;-72
2022/12/31 08:17:35;;;;;;;4.78;0.90;;;;;;;14.46;72.68;100554.16;4197833;28;20032;-72
2022/12/31 08:19:38;;;;;;;1.02;0.80;;;;;;;14.38;72.80;100565.50;4197798;28;20037;-72
2022/12/31 08:21:54;;;;;;;2.25;0.80;;;;;;;14.39;72.66;100562.88;4197800;28;20033;-72
2022/12/31 08:24:05;;;;;;;1.33;1.10;;;;;;;14.52;72.71;100566.38;4196943;28;20535;-72
2022/12/31 08:26:23;;;;;;;1.02;0.70;;;;;;;14.44;72.65;100566.38;4197736;28;20457;-72
2022/12/31 08:28:41;;;;;;;0.82;0.73;;;;;;;14.39;72.61;100568.13;4197656;28;20036;-72
2022/12/31 08:30:54;;;;;;;1.98;0.77;;;;;;;14.44;72.91;100574.25;4197735;28;20074;-72
2022/12/31 08:33:09;;;;;;;1.25;0.85;;;;;;;14.38;72.42;100570.72;4197532;28;20041;-72
2022/12/31 08:35:25;;;;;;;3.28;0.80;;;;;;;14.45;72.94;100572.47;4195977;28;20048;-72
2022/12/31 08:37:36;;;;;;;1.40;0.90;;;;;;;14.51;72.89;100582.94;4197502;28;20438;-72
2022/12/31 08:40:02;;;;;;;1.90;0.82;;;;;;;14.51;72.18;100575.09;4197593;28;20082;-71
2022/12/31 08:42:17;;;;;;;1.92;0.93;;;;;;;14.52;72.27;100579.47;4197850;28;20355;-72
2022/12/31 08:44:29;;;;;;;1.40;0.90;;;;;;;14.47;72.79;100575.94;4195469;28;20045;-71
2022/12/31 08:46:40;;;;;;;2.75;0.95;;;;;;;14.46;72.83;100584.69;4197494;28;20036;-71
2022/12/31 08:48:43;;;;;;;4.50;1.13;;;;;;;14.45;72.78;100580.31;4196006;28;20041;-71
2022/12/31 08:50:47;;;;;;;1.88;0.82;;;;;;;14.41;73.01;100581.19;4197378;28;20513;-71
2022/12/31 08:52:51;;;;;;;0.93;0.80;;;;;;;14.40;73.16;100580.34;4197358;28;20051;-71
2022/12/31 08:54:54;;;;;;;0.88;0.82;;;;;;;14.40;73.43;100593.41;4195485;28;20412;-71
2022/12/31 08:57:05;;;;;;;2.85;0.90;;;;;;;14.51;73.44;100587.31;4197260;28;20040;-72
2022/12/31 08:59:23;;;;;;;1.52;0.90;;;;;;;14.54;72.80;100580.31;4196181;28;20592;-72
2022/12/31 09:01:33;;;;;;;2.20;0.80;;;;;;;14.59;72.98;100580.34;4197352;28;20431;-72
2022/12/31 09:03:50;;;;;;;1.70;1.10;;;;;;;14.60;73.22;100585.56;4178700;28;20522;-72
2022/12/31 09:06:02;;;;;;;4.82;1.25;;;;;;;14.62;72.83;100583.84;4197203;28;20494;-72
2022/12/31 09:08:16;;;;;;;2.53;1.23;;;;;;;14.59;72.41;100575.09;4195967;28;20033;-72
2022/12/31 09:10:25;;;;;;;3.05;0.98;;;;;;;14.52;72.43;100579.47;4197189;28;20102;-72
2022/12/31 09:12:36;;;;;;;2.10;1.00;;;;;;;14.62;71.96;100580.38;4195944;28;20036;-72
2022/12/31 09:14:46;;;;;;;1.23;0.80;;;;;;;14.52;72.66;100584.69;4196071;28;20411;-72
2022/12/31 09:16:58;;;;;;;3.33;1.23;;;;;;;14.60;72.17;100587.28;4196059;28;20040;-72
2022/12/31 09:19:01;;;;;;;2.22;0.90;;;;;;;14.61;71.94;100589.94;4197193;28;20044;-72
2022/12/31 09:21:04;;;;;;;3.28;1.23;;;;;;;14.66;72.08;100597.81;4197097;28;20037;-72
2022/12/31 09:23:07;;;;;;;1.67;1.08;;;;;;;14.61;72.04;100600.41;4196874;28;20127;-72
2022/12/31 09:25:14;;;;;;;2.90;1.13;;;;;;;14.68;71.69;100608.28;4196579;28;20036;-73
2022/12/31 09:27:22;;;;;;;2.33;1.00;;;;;;;14.70;72.51;100614.38;4197185;28;20036;-72
2022/12/31 09:29:51;;;;;;;2.63;1.27;;;;;;;14.77;72.37;100616.97;4197004;28;20047;-72
2022/12/31 09:32:05;;;;;;;1.70;1.10;;;;;;;14.70;71.74;100632.69;4195804;28;20080;-72
2022/12/31 09:34:17;;;;;;;1.33;1.00;;;;;;;14.74;71.56;100622.22;4195058;28;20477;-72
2022/12/31 09:36:27;;;;;;;5.32;1.00;;;;;;;14.76;71.45;100628.34;4195688;28;20128;-72
2022/12/31 09:38:40;;;;;;;3.00;0.90;;;;;;;14.77;71.63;100637.91;4196904;28;20043;-72
2022/12/31 09:41:00;;;;;;;2.25;1.30;;;;;;;14.80;71.39;100634.44;4195659;28;20037;-72
2022/12/31 09:43:45;;;;;;;3.13;1.13;;;;;;;14.86;71.25;100625.72;4196921;28;20094;-72
2022/12/31 09:46:18;;;;;;;1.23;0.98;;;;;;;14.91;70.66;100609.13;4185819;28;20152;-72
2022/12/31 09:48:57;;;;;;;2.90;1.15;;;;;;;14.89;70.77;100610.84;4176454;28;20057;-72
2022/12/31 09:51:15;;;;;;;2.25;1.15;;;;;;;14.89;70.55;100612.63;4195513;28;20044;-72
2022/12/31 09:53:49;;;;;;;2.72;1.35;;;;;;;14.86;70.98;100615.25;4194730;28;20075;-72
2022/12/31 09:55:56;;;;;;;3.42;1.10;;;;;;;14.89;70.66;100616.09;4196910;28;20383;-72
2022/12/31 09:58:11;;;;;;;2.17;1.00;;;;;;;14.86;70.83;100604.75;4196877;28;20036;-72
2022/12/31 10:00:20;;;;;;;4.05;1.30;;;;;;;14.89;71.29;100613.47;4195699;28;20512;-72
2022/12/31 10:02:43;;;;;;;6.50;1.65;;;;;;;14.90;71.16;100611.75;4196997;28;20449;-72
2022/12/31 10:04:58;;;;;;;3.38;1.15;;;;;;;14.96;70.46;100619.59;4194958;28;20048;-72
2022/12/31 10:07:09;;;;;;;4.45;1.10;;;;;;;14.95;70.59;100605.63;4195589;28;20049;-72